createdAt,value
2018-03-11T00:01:35.921Z,10.27
2018-03-11T00:06:39.176Z,9.50
2018-03-11T00:11:42.406Z,10.47
2018-03-11T00:16:45.616Z,10.17
2018-03-11T00:21:48.946Z,9.80
2018-03-11T00:26:52.191Z,10.53
2018-03-11T00:31:55.419Z,13.17
2018-03-11T00:36:58.627Z,11.60
2018-03-11T00:42:01.927Z,12.87
2018-03-11T00:47:05.153Z,9.07
2018-03-11T00:52:08.368Z,9.97
2018-03-11T00:57:11.620Z,9.50
2018-03-11T01:02:14.845Z,10.03
2018-03-11T01:07:18.061Z,10.57
2018-03-11T01:12:21.362Z,9.47
2018-03-11T01:17:24.626Z,9.73
2018-03-11T01:22:27.823Z,9.63
2018-03-11T01:27:31.439Z,10.07
2018-03-11T01:32:35.074Z,8.97
2018-03-11T01:37:38.293Z,9.00
2018-03-11T01:42:41.509Z,8.50
2018-03-11T01:47:44.716Z,8.13
2018-03-11T01:52:59.784Z,7.83
2018-03-11T01:58:03.013Z,6.97
2018-03-11T02:03:06.239Z,7.03
2018-03-11T02:08:09.568Z,7.50
2018-03-11T02:13:12.786Z,6.73
2018-03-11T02:18:16.386Z,4.63
2018-03-11T02:23:19.599Z,4.37
2018-03-11T02:28:23.200Z,3.23
2018-03-11T02:33:26.515Z,3.10
2018-03-11T02:38:29.725Z,2.20
2018-03-11T02:43:32.921Z,2.00
2018-03-11T02:48:36.112Z,2.30
2018-03-11T02:53:39.312Z,2.33
2018-03-11T02:58:42.525Z,6.77
2018-03-11T03:03:45.727Z,5.80
2018-03-11T03:08:48.945Z,6.57
2018-03-11T03:13:52.259Z,6.27
2018-03-11T03:18:55.470Z,6.00
2018-03-11T03:23:58.773Z,6.53
2018-03-11T03:29:02.090Z,5.80
2018-03-11T03:34:05.683Z,6.23
2018-03-11T03:39:09.006Z,5.33
2018-03-11T03:44:12.748Z,6.23
2018-03-11T03:49:15.953Z,7.23
2018-03-11T03:54:19.151Z,9.43
2018-03-11T03:59:22.758Z,10.20
2018-03-11T04:04:26.461Z,10.23
2018-03-11T04:09:29.687Z,9.23
2018-03-11T04:14:33.298Z,5.97
2018-03-11T04:19:37.159Z,4.73
2018-03-11T04:24:40.366Z,5.13
2018-03-11T04:29:44.162Z,6.37
2018-03-11T04:34:47.367Z,6.40
2018-03-11T04:39:50.581Z,7.60
2018-03-11T04:44:53.801Z,7.23
2018-03-11T04:49:57.044Z,7.17
2018-03-11T04:55:00.272Z,7.77
2018-03-11T05:00:03.910Z,8.27
2018-03-11T05:05:07.278Z,8.13
2018-03-11T05:10:10.585Z,5.87
2018-03-11T05:15:13.779Z,7.93
2018-03-11T05:20:16.996Z,6.53
2018-03-11T05:25:20.737Z,6.70
2018-03-11T05:30:24.337Z,7.43
2018-03-11T05:35:27.962Z,6.77
2018-03-11T05:40:31.577Z,7.03
2018-03-11T05:45:35.789Z,7.00
2018-03-11T05:50:39.013Z,6.60
2018-03-11T05:55:42.607Z,7.73
2018-03-11T06:00:45.821Z,7.13
2018-03-11T06:05:49.059Z,7.77
2018-03-11T06:10:52.296Z,7.27
2018-03-11T06:15:55.524Z,6.13
2018-03-11T06:20:58.750Z,6.67
2018-03-11T06:26:02.364Z,6.63
2018-03-11T06:31:05.565Z,6.90
2018-03-11T06:36:09.375Z,7.60
2018-03-11T06:41:13.875Z,7.93
2018-03-11T06:46:17.116Z,8.77
2018-03-11T06:51:20.334Z,7.40
2018-03-11T06:56:23.930Z,6.37
2018-03-11T07:01:27.140Z,6.13
2018-03-11T07:06:30.457Z,6.13
2018-03-11T07:11:33.657Z,5.77
2018-03-11T07:16:36.933Z,5.23
2018-03-11T07:21:40.149Z,7.53
2018-03-11T07:26:43.347Z,6.60
2018-03-11T07:31:46.572Z,7.20
2018-03-11T07:36:49.788Z,8.77
2018-03-11T07:41:53.499Z,8.90
2018-03-11T07:46:56.742Z,7.93
2018-03-11T07:51:59.985Z,7.93
2018-03-11T07:57:03.279Z,8.03
2018-03-11T08:02:06.479Z,7.80
2018-03-11T08:07:09.707Z,8.27
2018-03-11T08:12:12.944Z,7.10
2018-03-11T08:17:16.276Z,7.60
2018-03-11T08:22:19.476Z,7.33
2018-03-11T08:27:22.692Z,7.20
2018-03-11T08:32:25.909Z,7.47
2018-03-11T08:37:29.120Z,6.40
2018-03-11T08:42:32.369Z,6.97
2018-03-11T08:47:35.620Z,5.87
2018-03-11T08:52:38.904Z,5.20
2018-03-11T08:57:42.700Z,4.90
2018-03-11T09:02:46.316Z,5.37
2018-03-11T09:07:49.623Z,5.53
2018-03-11T09:12:53.239Z,5.33
2018-03-11T09:17:56.453Z,6.83
2018-03-11T09:23:00.053Z,5.90
2018-03-11T09:28:03.282Z,6.00
2018-03-11T09:33:06.895Z,5.67
2018-03-11T09:38:10.184Z,5.00
2018-03-11T09:43:13.496Z,4.73
2018-03-11T09:48:16.709Z,4.70
2018-03-11T09:53:20.415Z,3.33
2018-03-11T09:58:24.246Z,3.90
2018-03-11T10:03:27.542Z,3.43
2018-03-11T10:08:31.139Z,3.20
2018-03-11T10:13:34.359Z,3.10
2018-03-11T10:18:37.576Z,2.77
2018-03-11T10:23:42.193Z,3.20
2018-03-11T10:28:45.409Z,4.37
2018-03-11T10:33:49.103Z,4.53
2018-03-11T10:38:52.620Z,4.30
2018-03-11T10:43:55.844Z,5.40
2018-03-11T10:48:59.565Z,4.93
2018-03-11T10:54:02.870Z,5.70
2018-03-11T10:59:06.091Z,5.30
2018-03-11T11:04:11.579Z,4.40
2018-03-11T11:09:14.930Z,5.33
2018-03-11T11:14:19.251Z,5.93
2018-03-11T11:19:22.539Z,4.67
2018-03-11T11:24:25.883Z,5.03
2018-03-11T11:29:29.141Z,5.83
2018-03-11T11:34:32.389Z,5.67
2018-03-11T11:39:35.700Z,5.60
2018-03-11T11:44:38.947Z,5.57
2018-03-11T11:49:42.221Z,5.53
2018-03-11T11:54:45.875Z,5.00
2018-03-11T11:59:49.141Z,5.03
2018-03-11T12:04:52.758Z,5.70
2018-03-11T12:09:56.389Z,5.07
2018-03-11T12:14:59.671Z,5.40
2018-03-11T12:20:02.888Z,4.97
2018-03-11T12:25:06.690Z,4.73
2018-03-11T12:30:09.907Z,5.10
2018-03-11T12:35:13.111Z,4.70
2018-03-11T12:40:16.361Z,4.87
2018-03-11T12:45:19.730Z,5.37
2018-03-11T12:50:23.452Z,5.20
2018-03-11T12:55:26.685Z,6.70
2018-03-11T13:00:29.862Z,6.53
2018-03-11T13:05:33.555Z,4.83
2018-03-11T13:10:36.740Z,4.77
2018-03-11T13:15:39.904Z,4.63
2018-03-11T13:26:23.955Z,5.53
2018-03-11T13:31:27.125Z,5.90
2018-03-11T13:36:30.289Z,5.33
2018-03-11T13:41:33.979Z,6.03
2018-03-11T13:46:49.265Z,7.10
2018-03-11T13:52:04.335Z,7.43
2018-03-11T14:03:00.540Z,6.63
2018-03-11T14:08:04.247Z,7.00
2018-03-11T14:13:07.509Z,10.53
2018-03-11T14:18:10.820Z,6.70
2018-03-11T14:23:14.036Z,6.07
2018-03-11T14:28:17.241Z,6.20
2018-03-11T14:33:20.435Z,6.03
2018-03-11T14:38:23.657Z,6.60
2018-03-11T14:43:26.887Z,6.47
2018-03-11T14:48:30.098Z,6.80
2018-03-11T14:53:33.713Z,6.40
2018-03-11T14:58:37.327Z,6.97
2018-03-11T15:03:40.941Z,5.80
2018-03-11T15:08:44.549Z,6.07
2018-03-11T15:13:47.782Z,6.50
2018-03-11T15:18:51.008Z,8.30
2018-03-11T15:23:54.281Z,16.47
2018-03-11T15:28:57.893Z,8.17
2018-03-11T15:34:01.507Z,7.50
2018-03-11T15:39:06.007Z,8.50
2018-03-11T15:44:09.204Z,7.87
2018-03-11T15:49:12.420Z,8.80
2018-03-11T15:54:15.624Z,8.23
2018-03-11T15:59:18.828Z,9.17
2018-03-11T16:04:22.043Z,8.73
2018-03-11T16:09:25.582Z,9.93
2018-03-11T16:14:29.194Z,10.77
2018-03-11T16:19:32.407Z,14.40
2018-03-11T16:24:39.724Z,14.83
2018-03-11T16:29:39.161Z,9.93
2018-03-11T16:34:42.411Z,8.50
2018-03-11T16:39:51.273Z,8.50
2018-03-11T16:44:54.503Z,10.00
2018-03-11T16:49:57.737Z,12.30
2018-03-11T16:55:00.960Z,13.33
2018-03-11T17:00:04.680Z,11.07
2018-03-11T17:05:08.370Z,14.13
2018-03-11T17:10:11.585Z,10.17
2018-03-11T17:15:14.851Z,16.77
2018-03-11T17:20:18.063Z,7.40
2018-03-11T17:25:21.517Z,8.57
2018-03-11T17:30:25.159Z,13.20
2018-03-11T17:35:28.508Z,8.90
2018-03-11T17:40:31.749Z,8.90
2018-03-11T17:45:35.385Z,13.83
2018-03-11T17:50:39.388Z,12.10
2018-03-11T17:55:43.029Z,9.80
2018-03-11T18:00:46.311Z,7.33
2018-03-11T18:05:50.004Z,8.67
2018-03-11T18:10:53.228Z,9.30
2018-03-11T18:15:56.834Z,7.60
2018-03-11T18:21:00.465Z,9.93
2018-03-11T18:26:04.177Z,8.47
2018-03-11T18:31:08.700Z,8.30
2018-03-11T18:36:12.454Z,7.73
2018-03-11T18:41:16.189Z,7.43
2018-03-11T18:46:19.525Z,8.37
2018-03-11T18:51:22.814Z,8.50
2018-03-11T18:56:26.238Z,7.70
2018-03-11T19:01:29.855Z,8.70
2018-03-11T19:06:33.591Z,8.23
2018-03-11T19:11:37.301Z,8.87
2018-03-11T19:16:40.679Z,8.33
2018-03-11T19:21:43.892Z,9.60
2018-03-11T19:26:47.496Z,8.53
2018-03-11T19:31:50.813Z,9.23
2018-03-11T19:36:54.454Z,9.53
2018-03-11T19:41:57.737Z,10.50
2018-03-11T19:47:01.104Z,11.27
2018-03-11T19:52:04.448Z,10.67
2018-03-11T19:57:08.104Z,11.53
2018-03-11T20:02:11.540Z,11.27
2018-03-11T20:07:15.558Z,12.50
2018-03-11T20:12:18.786Z,11.73
2018-03-11T20:17:22.172Z,12.63
2018-03-11T20:22:25.871Z,11.97
2018-03-11T20:27:29.093Z,12.03
2018-03-11T20:32:33.767Z,12.17
2018-03-11T20:37:37.619Z,11.97
2018-03-11T20:42:41.263Z,12.07
2018-03-11T20:47:44.816Z,11.43
2018-03-11T20:52:48.111Z,13.93
2018-03-11T20:57:51.448Z,13.03
2018-03-11T21:02:54.751Z,14.20
2018-03-11T21:07:58.380Z,12.83
2018-03-11T21:13:01.742Z,12.17
2018-03-11T21:18:05.049Z,13.17
2018-03-11T21:23:08.379Z,13.03
2018-03-11T21:28:12.066Z,12.33
2018-03-11T21:33:15.281Z,12.17
2018-03-11T21:38:18.589Z,13.30
2018-03-11T21:43:21.955Z,13.40
2018-03-11T21:48:25.267Z,13.33
2018-03-11T21:53:29.316Z,12.37
2018-03-11T21:58:33.598Z,13.03
2018-03-11T22:03:36.834Z,12.53
2018-03-11T22:08:40.659Z,12.73
2018-03-11T22:13:44.131Z,11.83
2018-03-11T22:18:47.359Z,13.50
2018-03-11T22:23:51.164Z,14.87
2018-03-11T22:28:54.402Z,15.87
2018-03-11T22:33:57.979Z,14.47
2018-03-11T22:39:01.400Z,13.67
2018-03-11T22:44:04.615Z,13.13
2018-03-11T22:49:08.895Z,13.83
2018-03-11T22:54:12.311Z,13.40
2018-03-11T22:59:15.822Z,13.40
2018-03-11T23:04:19.579Z,13.43
2018-03-11T23:09:22.782Z,13.87
2018-03-11T23:14:26.666Z,13.27
2018-03-11T23:19:30.028Z,12.93
2018-03-11T23:24:33.248Z,13.80
2018-03-11T23:29:36.473Z,12.83
2018-03-11T23:34:40.016Z,12.17
2018-03-11T23:39:45.939Z,13.07
2018-03-11T23:44:49.158Z,13.20
2018-03-11T23:49:53.969Z,13.50
2018-03-11T23:54:57.649Z,13.70
